Cliffwood Beach, New Jersey
Current Conditions -  °F | °C
As of 10:35 AM on Friday 24 Oct 2014 (Local Time) from KLDJ Reporting Station
Broken Clouds Broken Clouds  
Wind Chill: 60°   Ceiling: 4100
Heat Index: 60°   Visibility: 7mi
Dew Point: 47°   Wind: 18mph
Humidity: 61%   Direction: 330°NNW
Pressure: 29.85"   Gusts: 26mph
Location:  40.4398°N, 74.1836°W
Report Text: KLDJ 241435Z AUTO 33016G23KT 7SM SCT033 BKN041 16/08 A2985 RMK AO2 T01570081
Loading
Personal Weather Stations






























Interactive Weather Map
Tropical Storm Tracking
New forecast layout! Learn more

10-Day Weather Forecast

Advertisements
Track Severe Weather on mobile